TimeMST,TemperatureF,Dew PointF,Humidity,Sea Level PressureIn,VisibilityMPH,Wind Direction,Wind SpeedMPH,Gust SpeedMPH,PrecipitationIn,Events,Conditions,WindDirDegrees,DateUTC
12:53 AM,66.9,25.0,21,29.91,10.0,Calm,Calm,-,N/A,,Clear,0,2012-09-22 07:53:00
1:53 AM,70.0,23.0,17,29.91,10.0,WSW,4.6,-,N/A,,Clear,250,2012-09-22 08:53:00
2:53 AM,69.1,24.1,18,29.92,10.0,West,4.6,-,N/A,,Clear,260,2012-09-22 09:53:00
3:53 AM,66.0,25.0,21,29.94,10.0,WSW,3.5,-,N/A,,Clear,250,2012-09-22 10:53:00
4:53 AM,64.0,27.0,25,29.96,10.0,Calm,Calm,-,N/A,,Clear,0,2012-09-22 11:53:00
5:53 AM,63.0,26.1,25,29.98,10.0,West,3.5,-,N/A,,Clear,260,2012-09-22 12:53:00
6:53 AM,64.9,28.0,25,30.00,10.0,Calm,Calm,-,N/A,,Clear,0,2012-09-22 13:53:00
7:53 AM,69.1,25.0,19,30.01,10.0,Calm,Calm,-,N/A,,Clear,0,2012-09-22 14:53:00
8:53 AM,70.0,27.0,20,30.03,10.0,Calm,Calm,-,N/A,,Clear,0,2012-09-22 15:53:00
9:53 AM,73.9,26.1,17,30.03,10.0,Calm,Calm,-,N/A,,Clear,0,2012-09-22 16:53:00
10:53 AM,80.1,25.0,13,30.00,10.0,NE,6.9,-,N/A,,Clear,50,2012-09-22 17:53:00
11:53 AM,81.0,26.1,13,29.99,10.0,North,5.8,-,N/A,,Clear,350,2012-09-22 18:53:00
12:53 PM,84.0,26.1,12,29.96,10.0,Calm,Calm,-,N/A,,Clear,0,2012-09-22 19:53:00
1:53 PM,89.1,26.1,10,29.92,10.0,Calm,Calm,-,N/A,,Clear,0,2012-09-22 20:53:00
2:53 PM,91.0,27.0,10,29.89,10.0,ENE,6.9,-,N/A,,Clear,70,2012-09-22 21:53:00
3:53 PM,90.0,26.1,10,29.89,10.0,ESE,3.5,-,N/A,,Clear,120,2012-09-22 22:53:00
4:53 PM,90.0,28.9,11,29.88,10.0,SW,6.9,-,N/A,,Clear,230,2012-09-22 23:53:00
5:53 PM,88.0,28.9,12,29.88,10.0,South,8.1,-,N/A,,Clear,180,2012-09-23 00:53:00
6:53 PM,84.9,28.0,13,29.90,10.0,South,6.9,-,N/A,,Clear,180,2012-09-23 01:53:00
7:53 PM,82.9,30.9,15,29.91,10.0,SSW,6.9,-,N/A,,Clear,200,2012-09-23 02:53:00
8:53 PM,82.9,33.1,17,29.92,10.0,SSW,6.9,-,N/A,,Clear,200,2012-09-23 03:53:00
9:53 PM,84.9,32.0,15,29.91,10.0,Calm,Calm,-,N/A,,Partly Cloudy,0,2012-09-23 04:53:00
10:53 PM,79.0,33.1,19,29.91,10.0,SSW,6.9,-,N/A,,Clear,200,2012-09-23 05:53:00
11:53 PM,77.0,34.0,21,29.91,10.0,SSW,6.9,-,N/A,,Clear,210,2012-09-23 06:53:00